KSRB  Upper Cumberland Regional Airport

Add Bookmark

Sparta, Tennessee, United States

Status Useage
Operational Public
Latitude Longitude
36° 3' 24" N 85° 31' 48" W
36.056739 -85.530108
Local (DST -5) UTC (GMT -6)
Oct 24, 2014 11:52 Oct 24, 2014 16:52
Sunrise-Sunset Local UTC
Begin Civil Twilight 06:30 11:30
Sunrise 06:56 11:56
Sunset 05:55 22:55
End Civil Twilight 06:21 23:21

Current Weather

METAR Observed VFR
KSRB 241635Z AUTO VRB05KT 10SM CLR 17/07 A3011 Fri, Oct 24, 2014 @ 16:35 UTC
(17 Minutes ago)
Visual Flight Rules
Wind Visibility Clouds Conditions
Varies at 5 knots (6 mph) 10 statute miles
  • Clear skies
  • No significant weather
Temperatures Readings Precipitation
Current Temp 17°C (63°F)
Dewpoint 7°C (45°F)
Humidity 52%
Altimeter 30.11"Hg
Sea Level Pressure 1020mb
None Recorded

Additional weather within a 50nm radius of KSRB

Map ICAO Location
KCSV 22.5nm E (106°)
KRNC 26.3nm S (215°)
KMQY 48.1nm W (267°)

24 Hour Weather History

Loading
-

24 Hour Weather Graphs

Loading
-

CheckWX.com is intended as a tool to help pilots better visualize weather data. It is not intended as a substitute for an official weather briefing obtained from a Flight Service Station. CheckWX.com does not meet the FAA requirements for an official pre-flight weather briefing. Therefore, it's important that pilots still call and obtain an official FSS pre-flight weather briefing.